createdAt,value
2018-12-02T00:04:55.711Z,2.30
2018-12-02T00:10:06.787Z,2.50
2018-12-02T00:15:26.756Z,1.90
2018-12-02T00:20:43.659Z,2.70
2018-12-02T00:26:03.095Z,2.60
2018-12-02T00:31:19.774Z,2.30
2018-12-02T00:36:34.439Z,2.30
2018-12-02T00:41:53.098Z,2.40
2018-12-02T00:47:04.245Z,2.10
2018-12-02T00:52:21.998Z,2.80
2018-12-02T00:57:35.219Z,3.10
2018-12-02T01:02:51.087Z,3.40
2018-12-02T01:08:14.328Z,2.80
2018-12-02T01:13:33.252Z,2.00
2018-12-02T01:18:52.842Z,2.50
2018-12-02T01:24:17.786Z,1.80
2018-12-02T01:29:39.864Z,3.30
2018-12-02T01:35:00.913Z,2.70
2018-12-02T01:40:15.085Z,2.50
2018-12-02T01:45:32.390Z,2.40
2018-12-02T01:56:06.963Z,2.80
2018-12-02T02:01:21.881Z,3.70
2018-12-02T02:06:35.339Z,3.40
2018-12-02T02:11:52.952Z,2.30
2018-12-02T02:17:06.780Z,2.60
2018-12-02T02:22:26.783Z,2.60
2018-12-02T02:27:43.500Z,2.40
2018-12-02T02:32:59.990Z,1.80
2018-12-02T02:38:17.270Z,1.40
2018-12-02T02:43:34.224Z,2.50
2018-12-02T02:59:13.857Z,5.70
2018-12-02T03:04:28.498Z,3.30
2018-12-02T03:09:47.778Z,3.60
2018-12-02T03:15:04.859Z,2.80
2018-12-02T03:20:27.255Z,3.20
2018-12-02T03:25:46.305Z,2.50
2018-12-02T03:36:19.428Z,6.20
2018-12-02T03:41:34.565Z,3.80
2018-12-02T03:57:19.426Z,5.20
2018-12-02T04:02:39.866Z,4.90
2018-12-02T04:07:57.832Z,4.40
2018-12-02T04:13:15.946Z,3.30
2018-12-02T04:18:38.108Z,3.00
2018-12-02T04:24:00.269Z,4.70
2018-12-02T04:29:16.356Z,3.00
2018-12-02T04:45:02.041Z,6.10
2018-12-02T04:50:29.079Z,7.00
2018-12-02T04:55:44.413Z,4.00
2018-12-02T05:01:00.762Z,4.30
2018-12-02T05:16:50.321Z,6.30
2018-12-02T05:22:02.550Z,5.60
2018-12-02T05:27:20.359Z,5.50
2018-12-02T05:32:44.823Z,4.20
2018-12-02T05:38:02.479Z,4.90
2018-12-02T05:48:38.946Z,6.60
2018-12-02T05:53:51.854Z,4.90
2018-12-02T05:59:08.356Z,5.30
2018-12-02T06:14:51.894Z,8.70
2018-12-02T06:20:13.341Z,4.60
2018-12-02T06:25:35.513Z,4.90
2018-12-02T06:30:56.218Z,4.40
2018-12-02T06:41:29.280Z,7.90
2018-12-02T06:46:49.637Z,5.20
2018-12-02T06:52:04.381Z,5.00
2018-12-02T07:02:42.006Z,6.70
2018-12-02T07:08:01.372Z,4.50
2018-12-02T07:13:20.746Z,5.60
2018-12-02T07:18:33.734Z,7.20
2018-12-02T07:23:55.802Z,9.50
2018-12-02T07:29:13.771Z,14.90
2018-12-02T07:34:27.184Z,15.10
2018-12-02T07:39:46.909Z,13.70
2018-12-02T07:45:01.172Z,11.00
2018-12-02T07:50:16.947Z,14.40
2018-12-02T07:55:30.179Z,13.50
2018-12-02T08:00:42.017Z,19.40
2018-12-02T08:05:56.521Z,14.50
2018-12-02T08:11:08.966Z,11.00
2018-12-02T08:16:22.145Z,11.80
2018-12-02T08:21:40.081Z,11.00
2018-12-02T08:26:59.299Z,11.10
2018-12-02T08:32:09.559Z,11.60
2018-12-02T08:37:21.009Z,12.40
2018-12-02T08:42:34.963Z,16.90
2018-12-02T08:47:45.530Z,15.80
2018-12-02T08:53:00.750Z,11.50
2018-12-02T08:58:14.154Z,11.50
2018-12-02T09:03:24.133Z,11.40
2018-12-02T09:08:33.307Z,9.50
2018-12-02T09:13:39.271Z,6.90
2018-12-02T09:18:57.100Z,9.50
2018-12-02T09:24:06.964Z,7.00
2018-12-02T09:29:15.141Z,5.40
2018-12-02T09:34:31.521Z,7.10
2018-12-02T09:39:51.507Z,4.30
2018-12-02T09:45:06.857Z,4.30
2018-12-02T09:50:18.645Z,2.30
2018-12-02T09:55:25.716Z,2.20
2018-12-02T10:00:34.752Z,2.40
2018-12-02T10:05:40.721Z,2.30
2018-12-02T10:10:50.717Z,2.40
2018-12-02T10:16:04.095Z,3.20
2018-12-02T10:21:09.648Z,3.50
2018-12-02T10:26:18.244Z,3.40
2018-12-02T10:31:20.295Z,3.30
2018-12-02T10:36:23.860Z,2.70
2018-12-02T10:41:27.368Z,3.40
2018-12-02T10:46:29.975Z,3.50
2018-12-02T10:51:32.664Z,3.30
2018-12-02T10:56:34.975Z,3.50
2018-12-02T11:01:37.775Z,3.70
2018-12-02T11:06:38.497Z,3.60
2018-12-02T11:11:39.003Z,3.30
2018-12-02T11:16:40.148Z,3.60
2018-12-02T11:21:39.146Z,3.80
2018-12-02T11:26:40.536Z,3.10
2018-12-02T11:31:38.296Z,4.50
2018-12-02T11:36:36.237Z,4.90
2018-12-02T11:41:37.847Z,4.60
2018-12-02T11:46:36.285Z,4.00
2018-12-02T11:51:34.062Z,2.80
2018-12-02T11:56:32.622Z,2.40
2018-12-02T12:01:34.295Z,2.60
2018-12-02T12:06:34.731Z,3.40
2018-12-02T12:11:31.284Z,3.70
2018-12-02T12:16:30.484Z,3.90
2018-12-02T12:21:28.853Z,3.40
2018-12-02T12:26:27.097Z,3.50
2018-12-02T12:31:26.064Z,3.50
2018-12-02T12:36:21.699Z,3.70
2018-12-02T12:41:21.508Z,3.20
2018-12-02T12:46:17.022Z,3.30
2018-12-02T12:51:15.919Z,3.60
2018-12-02T12:56:11.648Z,3.60
2018-12-02T13:01:10.645Z,3.20
2018-12-02T13:06:08.714Z,3.10
2018-12-02T13:11:06.575Z,3.00
2018-12-02T13:16:03.179Z,3.20
2018-12-02T13:21:00.767Z,3.10
2018-12-02T13:25:56.863Z,3.30
2018-12-02T13:31:02.562Z,3.90
2018-12-02T13:36:18.830Z,3.30
2018-12-02T13:41:15.103Z,3.20
2018-12-02T13:46:10.930Z,3.30
2018-12-02T13:51:09.687Z,2.70
2018-12-02T13:56:08.525Z,3.20
2018-12-02T14:01:04.511Z,3.80
2018-12-02T14:06:03.356Z,4.10
2018-12-02T14:11:01.885Z,3.70
2018-12-02T14:16:02.119Z,3.00
2018-12-02T14:21:00.220Z,3.70
2018-12-02T14:25:58.383Z,3.80
2018-12-02T14:30:57.130Z,3.20
2018-12-02T14:35:56.002Z,4.00
2018-12-02T14:41:05.379Z,4.30
2018-12-02T14:46:02.174Z,6.10
2018-12-02T14:51:00.843Z,4.60
2018-12-02T14:56:00.885Z,4.70
2018-12-02T15:01:04.840Z,5.00
2018-12-02T15:06:02.046Z,5.50
2018-12-02T15:11:02.933Z,5.10
2018-12-02T15:16:02.105Z,5.60
2018-12-02T15:21:03.159Z,5.10
2018-12-02T15:26:03.973Z,5.00
2018-12-02T15:31:03.041Z,5.10
2018-12-02T15:36:04.278Z,6.20
2018-12-02T15:41:03.384Z,5.60
2018-12-02T15:46:01.353Z,6.20
2018-12-02T15:51:00.740Z,6.60
2018-12-02T15:56:01.547Z,6.30
2018-12-02T16:00:59.197Z,6.00
2018-12-02T16:06:03.960Z,7.10
2018-12-02T16:11:00.559Z,6.40
2018-12-02T16:16:01.967Z,7.10
2018-12-02T16:21:02.655Z,6.40
2018-12-02T16:26:03.034Z,5.40
2018-12-02T16:31:03.740Z,5.60
2018-12-02T16:36:02.643Z,6.00
2018-12-02T16:41:00.506Z,6.20
2018-12-02T16:46:01.252Z,5.40
2018-12-02T16:51:01.591Z,5.90
2018-12-02T16:56:03.378Z,5.40
2018-12-02T17:01:02.787Z,4.90
2018-12-02T17:06:02.984Z,4.80
2018-12-02T17:11:09.429Z,5.10
2018-12-02T17:16:06.731Z,4.80
2018-12-02T17:21:16.365Z,5.20
2018-12-02T17:26:13.661Z,4.50
2018-12-02T17:31:11.814Z,4.80
2018-12-02T17:36:10.362Z,3.90
2018-12-02T17:41:09.846Z,3.40
2018-12-02T17:46:08.724Z,3.10
2018-12-02T17:51:05.132Z,3.20
2018-12-02T17:56:05.973Z,3.30
2018-12-02T18:01:01.958Z,3.80
2018-12-02T18:06:01.675Z,4.30
2018-12-02T18:11:01.354Z,4.10
2018-12-02T18:16:00.224Z,4.30
2018-12-02T18:20:59.418Z,4.70
2018-12-02T18:25:56.516Z,3.80
2018-12-02T18:30:54.297Z,4.30
2018-12-02T18:35:53.749Z,3.70
2018-12-02T18:40:51.866Z,3.40
2018-12-02T18:45:51.639Z,3.40
2018-12-02T18:50:49.740Z,2.60
2018-12-02T18:55:50.209Z,3.00
2018-12-02T19:00:46.219Z,2.50
2018-12-02T19:05:46.045Z,2.80
2018-12-02T19:10:44.091Z,2.60
2018-12-02T19:15:42.683Z,2.30
2018-12-02T19:20:42.167Z,1.90
2018-12-02T19:25:40.260Z,2.30
2018-12-02T19:30:38.702Z,2.70
2018-12-02T19:35:38.264Z,2.40
2018-12-02T19:40:34.490Z,2.50
2018-12-02T19:45:32.786Z,2.00
2018-12-02T19:50:33.651Z,2.00
2018-12-02T19:55:33.728Z,2.00
2018-12-02T20:00:32.865Z,1.50
2018-12-02T20:05:31.384Z,1.70
2018-12-02T20:10:32.782Z,1.90
2018-12-02T20:15:33.588Z,1.90
2018-12-02T20:20:37.336Z,2.20
2018-12-02T20:25:37.531Z,2.20
2018-12-02T20:30:41.665Z,2.00
2018-12-02T20:35:48.478Z,2.50
2018-12-02T20:40:51.268Z,2.30
2018-12-02T20:45:50.963Z,2.50
2018-12-02T20:50:51.944Z,2.40
2018-12-02T20:55:55.252Z,2.70
2018-12-02T21:00:57.699Z,3.40
2018-12-02T21:06:00.265Z,3.00
2018-12-02T21:11:03.119Z,3.40
2018-12-02T21:16:08.928Z,3.80
2018-12-02T21:21:16.230Z,3.80
2018-12-02T21:26:16.469Z,4.20
2018-12-02T21:31:17.507Z,4.20
2018-12-02T21:36:20.461Z,4.50
2018-12-02T21:41:24.295Z,4.30
2018-12-02T21:46:24.843Z,4.00
2018-12-02T21:51:25.846Z,4.30
2018-12-02T21:56:26.918Z,3.60
2018-12-02T22:01:31.060Z,3.90
2018-12-02T22:06:33.374Z,4.40
2018-12-02T22:11:34.250Z,4.60
2018-12-02T22:16:35.078Z,4.60
2018-12-02T22:21:39.013Z,5.90
2018-12-02T22:26:45.387Z,5.80
2018-12-02T22:31:53.747Z,5.90
2018-12-02T22:37:01.638Z,5.60
2018-12-02T22:42:08.748Z,5.70
2018-12-02T22:47:17.357Z,5.20
2018-12-02T22:52:17.404Z,5.90
2018-12-02T22:57:18.242Z,5.30
2018-12-02T23:02:18.160Z,5.20
2018-12-02T23:07:18.641Z,6.80
2018-12-02T23:12:22.763Z,5.80
2018-12-02T23:17:23.391Z,5.50
2018-12-02T23:22:23.956Z,5.30
2018-12-02T23:27:31.182Z,4.80
2018-12-02T23:32:30.818Z,5.00
2018-12-02T23:37:30.915Z,4.70
2018-12-02T23:42:37.806Z,5.50
2018-12-02T23:47:37.368Z,5.50
2018-12-02T23:52:38.078Z,5.40
2018-12-02T23:57:38.105Z,5.00
